createdAt,value
2018-08-20T00:00:46.067Z,19.71
2018-08-20T00:01:46.057Z,19.72
2018-08-20T00:02:46.065Z,19.67
2018-08-20T00:03:46.088Z,19.67
2018-08-20T00:04:46.036Z,19.62
2018-08-20T00:05:46.010Z,19.64
2018-08-20T00:06:46.000Z,19.62
2018-08-20T00:07:46.018Z,19.62
2018-08-20T00:08:45.989Z,19.68
2018-08-20T00:09:45.986Z,19.68
2018-08-20T00:10:45.960Z,19.62
2018-08-20T00:11:45.946Z,19.70
2018-08-20T00:12:45.965Z,19.68
2018-08-20T00:13:45.977Z,19.68
2018-08-20T00:14:45.925Z,19.62
2018-08-20T00:15:45.911Z,19.58
2018-08-20T00:16:45.847Z,19.52
2018-08-20T00:17:45.902Z,19.57
2018-08-20T00:18:45.880Z,19.55
2018-08-20T00:19:45.867Z,19.55
2018-08-20T00:20:45.818Z,19.57
2018-08-20T00:21:45.840Z,19.58
2018-08-20T00:22:45.849Z,19.62
2018-08-20T00:23:45.826Z,19.53
2018-08-20T00:24:45.806Z,19.52
2018-08-20T00:25:45.795Z,19.55
2018-08-20T00:26:45.785Z,19.50
2018-08-20T00:27:45.790Z,19.49
2018-08-20T00:28:45.760Z,19.47
2018-08-20T00:29:45.752Z,19.40
2018-08-20T00:30:45.740Z,19.47
2018-08-20T00:31:45.729Z,19.53
2018-08-20T00:32:45.747Z,19.47
2018-08-20T00:33:45.666Z,19.50
2018-08-20T00:34:45.701Z,19.38
2018-08-20T00:35:45.685Z,19.39
2018-08-20T00:36:45.683Z,19.46
2018-08-20T00:37:45.711Z,19.43
2018-08-20T00:38:45.653Z,19.50
2018-08-20T00:39:45.640Z,19.43
2018-08-20T00:40:45.627Z,19.52
2018-08-20T00:41:45.623Z,19.55
2018-08-20T00:42:45.626Z,19.52
2018-08-20T00:43:45.615Z,19.53
2018-08-20T00:44:45.538Z,19.49
2018-08-20T00:45:45.568Z,19.47
2018-08-20T00:46:45.566Z,19.49
2018-08-20T00:47:45.590Z,19.46
2018-08-20T00:48:45.559Z,19.55
2018-08-20T00:49:45.527Z,19.58
2018-08-20T00:50:45.539Z,19.58
2018-08-20T00:51:45.506Z,19.61
2018-08-20T00:52:45.526Z,19.61
2018-08-20T00:53:45.484Z,19.50
2018-08-20T00:54:45.523Z,19.57
2018-08-20T00:55:45.458Z,19.53
2018-08-20T00:56:45.418Z,19.52
2018-08-20T00:57:45.459Z,19.50
2018-08-20T00:58:45.385Z,19.53
2018-08-20T00:59:45.376Z,19.46
2018-08-20T01:00:45.412Z,19.47
2018-08-20T01:01:45.392Z,19.45
2018-08-20T01:02:45.543Z,19.40
2018-08-20T01:03:45.380Z,19.43
2018-08-20T01:04:45.358Z,19.35
2018-08-20T01:05:45.348Z,19.43
2018-08-20T01:06:45.296Z,19.42
2018-08-20T01:07:45.354Z,19.38
2018-08-20T01:08:45.271Z,19.47
2018-08-20T01:09:45.305Z,19.46
2018-08-20T01:10:45.283Z,19.40
2018-08-20T01:11:45.279Z,19.52
2018-08-20T01:12:45.319Z,19.58
2018-08-20T01:13:45.259Z,19.61
2018-08-20T01:14:45.200Z,19.58
2018-08-20T01:15:45.236Z,19.68
2018-08-20T01:16:45.188Z,19.64
2018-08-20T01:17:45.241Z,19.72
2018-08-20T01:18:45.205Z,19.65
2018-08-20T01:19:45.208Z,19.76
2018-08-20T01:20:45.182Z,19.75
2018-08-20T01:21:45.169Z,19.75
2018-08-20T01:22:45.194Z,19.80
2018-08-20T01:23:45.146Z,19.92
2018-08-20T01:24:45.138Z,19.87
2018-08-20T01:25:45.089Z,19.87
2018-08-20T01:26:45.131Z,19.90
2018-08-20T01:27:45.103Z,19.94
2018-08-20T01:28:45.118Z,19.87
2018-08-20T01:29:45.076Z,19.92
2018-08-20T01:30:45.069Z,19.95
2018-08-20T01:31:45.062Z,19.87
2018-08-20T01:32:45.049Z,19.89
2018-08-20T01:33:45.016Z,19.90
2018-08-20T01:34:45.021Z,19.92
2018-08-20T01:35:45.010Z,20.01
2018-08-20T01:36:45.003Z,19.89
2018-08-20T01:37:44.949Z,20.04
2018-08-20T01:38:44.961Z,20.01
2018-08-20T01:39:44.974Z,20.02
2018-08-20T01:40:44.961Z,19.90
2018-08-20T01:41:44.944Z,20.00
2018-08-20T01:42:44.937Z,19.89
2018-08-20T01:43:44.951Z,19.97
2018-08-20T01:44:44.913Z,19.89
2018-08-20T01:45:44.901Z,19.89
2018-08-20T01:46:44.893Z,19.87
2018-08-20T01:47:44.882Z,19.94
2018-08-20T01:48:44.900Z,19.95
2018-08-20T01:49:44.872Z,19.94
2018-08-20T01:50:44.847Z,19.95
2018-08-20T01:51:44.838Z,19.94
2018-08-20T01:52:44.826Z,19.89
2018-08-20T01:53:44.839Z,19.89
2018-08-20T01:54:44.813Z,19.90
2018-08-20T01:55:44.814Z,19.87
2018-08-20T01:56:44.781Z,19.92
2018-08-20T01:57:44.724Z,19.85
2018-08-20T01:58:44.780Z,19.85
2018-08-20T01:59:44.755Z,19.89
2018-08-20T02:00:44.739Z,19.95
2018-08-20T02:01:44.726Z,20.02
2018-08-20T02:02:44.731Z,20.05
2018-08-20T02:03:44.694Z,20.02
2018-08-20T02:04:44.642Z,20.04
2018-08-20T02:05:44.693Z,20.00
2018-08-20T02:06:44.669Z,20.01
2018-08-20T02:07:44.654Z,20.10
2018-08-20T02:08:44.675Z,20.08
2018-08-20T02:09:44.705Z,20.08
2018-08-20T02:10:44.626Z,20.12
2018-08-20T02:11:44.667Z,20.07
2018-08-20T02:12:44.610Z,20.10
2018-08-20T02:13:44.607Z,20.15
2018-08-20T02:14:44.580Z,20.23
2018-08-20T02:15:44.624Z,20.23
2018-08-20T02:16:44.565Z,20.30
2018-08-20T02:17:44.542Z,20.33
2018-08-20T02:18:44.557Z,20.31
2018-08-20T02:19:44.525Z,20.42
2018-08-20T02:20:44.514Z,20.35
2018-08-20T02:21:44.506Z,20.44
2018-08-20T02:22:44.491Z,20.48
2018-08-20T02:23:44.457Z,20.53
2018-08-20T02:24:44.466Z,20.53
2018-08-20T02:25:44.455Z,20.60
2018-08-20T02:26:44.452Z,20.60
2018-08-20T02:27:44.398Z,20.69
2018-08-20T02:28:44.442Z,20.71
2018-08-20T02:29:44.380Z,20.69
2018-08-20T02:30:44.396Z,20.64
2018-08-20T02:31:44.389Z,20.61
2018-08-20T02:32:44.382Z,20.68
2018-08-20T02:33:44.390Z,20.69
2018-08-20T02:34:44.356Z,20.56
2018-08-20T02:35:44.345Z,20.73
2018-08-20T02:36:44.289Z,20.61
2018-08-20T02:37:44.335Z,20.69
2018-08-20T02:38:44.343Z,20.64
2018-08-20T02:39:44.302Z,20.63
2018-08-20T02:40:44.289Z,20.57
2018-08-20T02:41:44.276Z,20.64
2018-08-20T02:42:44.232Z,20.61
2018-08-20T02:43:44.272Z,20.63
2018-08-20T02:44:44.272Z,20.71
2018-08-20T02:45:44.236Z,20.68
2018-08-20T02:46:44.226Z,20.60
2018-08-20T02:47:44.172Z,20.61
2018-08-20T02:48:44.230Z,20.64
2018-08-20T02:49:44.241Z,20.63
2018-08-20T02:50:44.182Z,20.64
2018-08-20T02:51:44.169Z,20.69
2018-08-20T02:52:44.178Z,20.66
2018-08-20T02:53:44.112Z,20.61
2018-08-20T02:54:44.175Z,20.72
2018-08-20T02:55:44.083Z,20.69
2018-08-20T02:56:44.077Z,20.75
2018-08-20T02:57:44.129Z,20.71
2018-08-20T02:58:44.096Z,20.61
2018-08-20T02:59:44.066Z,20.64
2018-08-20T03:00:44.076Z,20.69
2018-08-20T03:01:44.039Z,20.58
2018-08-20T03:02:44.063Z,20.81
2018-08-20T03:03:44.062Z,20.79
2018-08-20T03:04:44.131Z,20.73
2018-08-20T03:05:44.023Z,20.79
2018-08-20T03:06:44.011Z,20.78
2018-08-20T03:07:43.952Z,20.71
2018-08-20T03:08:44.051Z,20.66
2018-08-20T03:09:43.995Z,20.61
2018-08-20T03:10:43.967Z,20.64
2018-08-20T03:11:43.951Z,20.76
2018-08-20T03:12:43.897Z,20.69
2018-08-20T03:13:43.934Z,20.75
2018-08-20T03:14:44.031Z,20.73
2018-08-20T03:15:43.906Z,20.79
2018-08-20T03:16:43.899Z,20.81
2018-08-20T03:17:43.890Z,20.88
2018-08-20T03:18:43.873Z,20.82
2018-08-20T03:19:43.854Z,20.81
2018-08-20T03:20:43.854Z,20.85
2018-08-20T03:21:43.840Z,20.82
2018-08-20T03:22:43.829Z,20.76
2018-08-20T03:23:43.820Z,20.83
2018-08-20T03:24:43.834Z,20.83
2018-08-20T03:25:43.796Z,20.87
2018-08-20T03:26:43.791Z,20.75
2018-08-20T03:27:43.778Z,20.78
2018-08-20T03:28:43.764Z,20.88
2018-08-20T03:29:43.772Z,20.83
2018-08-20T03:30:43.751Z,20.87
2018-08-20T03:31:43.734Z,20.75
2018-08-20T03:32:43.721Z,20.82
2018-08-20T03:33:43.713Z,20.79
2018-08-20T03:34:43.735Z,20.81
2018-08-20T03:35:43.644Z,20.85
2018-08-20T03:36:43.676Z,20.88
2018-08-20T03:37:43.674Z,20.82
2018-08-20T03:38:43.656Z,20.81
2018-08-20T03:39:43.668Z,20.83
2018-08-20T03:40:43.648Z,20.81
2018-08-20T03:41:43.622Z,20.87
2018-08-20T03:42:43.613Z,20.82
2018-08-20T03:43:43.560Z,20.79
2018-08-20T03:44:43.614Z,20.82
2018-08-20T03:45:43.536Z,20.90
2018-08-20T03:46:43.561Z,20.85
2018-08-20T03:47:43.554Z,20.78
2018-08-20T03:48:43.561Z,20.85
2018-08-20T03:49:43.564Z,20.82
2018-08-20T03:50:43.526Z,20.88
2018-08-20T03:51:43.522Z,20.88
2018-08-20T03:52:43.497Z,20.78
2018-08-20T03:53:43.488Z,20.82
2018-08-20T03:54:43.502Z,20.81
2018-08-20T03:55:43.429Z,20.66
2018-08-20T03:56:43.458Z,20.81
2018-08-20T03:57:43.446Z,20.82
2018-08-20T03:58:43.390Z,20.78
2018-08-20T03:59:43.452Z,20.83
2018-08-20T04:00:43.410Z,20.79
2018-08-20T04:01:43.412Z,20.76
2018-08-20T04:02:43.401Z,20.75
2018-08-20T04:03:43.377Z,20.83
2018-08-20T04:04:43.374Z,20.87
2018-08-20T04:05:43.380Z,20.76
2018-08-20T04:06:43.351Z,20.79
2018-08-20T04:07:43.298Z,20.82
2018-08-20T04:08:43.318Z,20.90
2018-08-20T04:09:43.313Z,20.72
2018-08-20T04:10:43.321Z,20.75
2018-08-20T04:11:43.288Z,20.81
2018-08-20T04:12:43.280Z,20.78
2018-08-20T04:13:43.282Z,20.79
2018-08-20T04:14:43.256Z,20.79
2018-08-20T04:15:43.264Z,20.83
2018-08-20T04:16:43.241Z,20.76
2018-08-20T04:17:43.195Z,20.79
2018-08-20T04:18:43.211Z,20.76
2018-08-20T04:19:43.205Z,20.78
2018-08-20T04:20:43.213Z,20.76
2018-08-20T04:21:43.127Z,20.75
2018-08-20T04:22:43.169Z,20.78
2018-08-20T04:23:43.165Z,20.82
2018-08-20T04:24:43.168Z,20.88
2018-08-20T04:25:43.159Z,20.88
2018-08-20T04:26:43.127Z,20.96
2018-08-20T04:27:43.073Z,20.97
2018-08-20T04:28:43.103Z,20.94
2018-08-20T04:29:43.099Z,21.00
2018-08-20T04:30:43.112Z,20.96
2018-08-20T04:31:43.065Z,20.97
2018-08-20T04:32:43.064Z,20.93
2018-08-20T04:33:43.048Z,20.97
2018-08-20T04:34:43.031Z,20.94
2018-08-20T04:35:43.055Z,20.97
2018-08-20T04:36:43.009Z,20.91
2018-08-20T04:37:43.006Z,21.00
2018-08-20T04:38:42.991Z,20.97
2018-08-20T04:39:42.956Z,21.00
2018-08-20T04:40:43.009Z,20.87
2018-08-20T04:41:42.960Z,20.88
2018-08-20T04:42:42.969Z,21.08
2018-08-20T04:43:42.893Z,21.19
2018-08-20T04:44:42.923Z,21.18
2018-08-20T04:45:42.901Z,21.27
2018-08-20T04:46:42.934Z,21.27
2018-08-20T04:47:42.894Z,21.21
2018-08-20T04:48:42.877Z,21.13
2018-08-20T04:49:42.824Z,21.16
2018-08-20T04:50:43.007Z,21.18
2018-08-20T04:51:42.855Z,21.24
2018-08-20T04:52:42.803Z,21.18
2018-08-20T04:53:42.843Z,21.22
2018-08-20T04:54:42.811Z,21.30
2018-08-20T04:55:42.830Z,21.28
2018-08-20T04:56:42.803Z,21.26
2018-08-20T04:57:42.736Z,21.22
2018-08-20T04:58:42.775Z,21.26
2018-08-20T04:59:42.757Z,21.18
2018-08-20T05:00:42.914Z,21.16
2018-08-20T05:01:42.735Z,21.11
2018-08-20T05:02:42.730Z,21.08
2018-08-20T05:03:42.719Z,21.05
2018-08-20T05:04:42.766Z,21.13
2018-08-20T05:05:42.732Z,21.11
2018-08-20T05:06:42.687Z,20.97
2018-08-20T05:07:42.673Z,20.97
2018-08-20T05:08:42.663Z,21.00
2018-08-20T05:09:42.651Z,20.97
2018-08-20T05:10:42.692Z,20.93
2018-08-20T05:11:42.627Z,21.01
2018-08-20T05:12:42.614Z,21.11
2018-08-20T05:13:42.607Z,21.00
2018-08-20T05:14:42.632Z,21.09
2018-08-20T05:15:42.610Z,21.03
2018-08-20T05:16:42.538Z,21.06
2018-08-20T05:17:42.557Z,21.00
2018-08-20T05:18:42.594Z,20.96
2018-08-20T05:19:42.548Z,21.03
2018-08-20T05:20:42.589Z,20.93
2018-08-20T05:21:42.520Z,21.08
2018-08-20T05:22:42.507Z,21.00
2018-08-20T05:23:42.503Z,20.98
2018-08-20T05:24:42.493Z,21.03
2018-08-20T05:25:42.504Z,20.97
2018-08-20T05:26:42.478Z,20.98
2018-08-20T05:27:42.457Z,20.94
2018-08-20T05:28:42.465Z,21.01
2018-08-20T05:29:42.436Z,20.93
2018-08-20T05:30:42.452Z,20.88
2018-08-20T05:31:42.433Z,20.97
2018-08-20T05:32:42.440Z,21.00
2018-08-20T05:33:42.440Z,21.15
2018-08-20T05:34:42.389Z,21.26
2018-08-20T05:35:42.379Z,21.31
2018-08-20T05:36:42.387Z,21.33
2018-08-20T05:37:42.353Z,21.43
2018-08-20T05:38:42.328Z,21.46
2018-08-20T05:39:42.320Z,21.48
2018-08-20T05:40:42.306Z,21.45
2018-08-20T05:41:42.387Z,21.38
2018-08-20T05:42:42.284Z,21.42
2018-08-20T05:43:42.284Z,21.40
2018-08-20T05:44:42.301Z,21.36
2018-08-20T05:45:42.257Z,21.59
2018-08-20T05:46:42.270Z,21.74
2018-08-20T05:47:42.200Z,21.68
2018-08-20T05:48:42.223Z,21.67
2018-08-20T05:49:42.216Z,21.73
2018-08-20T05:50:42.207Z,21.67
2018-08-20T05:51:42.211Z,21.59
2018-08-20T05:52:42.216Z,21.68
2018-08-20T05:53:42.180Z,21.71
2018-08-20T05:54:42.115Z,21.77
2018-08-20T05:55:42.152Z,21.83
2018-08-20T05:56:42.166Z,21.86
2018-08-20T05:57:42.126Z,21.90
2018-08-20T05:58:42.123Z,21.85
2018-08-20T05:59:42.068Z,22.02
2018-08-20T06:00:42.099Z,22.01
2018-08-20T06:01:42.076Z,22.05
2018-08-20T06:02:42.072Z,21.96
2018-08-20T06:03:42.079Z,21.94
2018-08-20T06:04:42.054Z,22.01
2018-08-20T06:05:42.041Z,22.01
2018-08-20T06:06:42.060Z,22.05
2018-08-20T06:07:42.020Z,22.09
2018-08-20T06:08:42.019Z,22.23
2018-08-20T06:09:42.022Z,22.17
2018-08-20T06:10:41.943Z,22.23
2018-08-20T06:11:41.965Z,22.31
2018-08-20T06:12:41.971Z,22.29
2018-08-20T06:13:41.956Z,22.31
2018-08-20T06:14:42.028Z,22.31
2018-08-20T06:15:41.948Z,22.39
2018-08-20T06:16:41.949Z,22.41
2018-08-20T06:17:41.880Z,22.45
2018-08-20T06:18:42.001Z,22.52
2018-08-20T06:19:41.897Z,22.59
2018-08-20T06:20:41.886Z,22.54
2018-08-20T06:21:41.899Z,22.52
2018-08-20T06:22:41.936Z,22.42
2018-08-20T06:23:41.859Z,22.51
2018-08-20T06:24:41.838Z,22.64
2018-08-20T06:25:41.841Z,23.35
2018-08-20T06:26:41.837Z,23.78
2018-08-20T06:27:41.822Z,24.16
2018-08-20T06:28:41.806Z,24.66
2018-08-20T06:29:41.809Z,24.82
2018-08-20T06:30:41.783Z,24.75
2018-08-20T06:31:41.792Z,24.70
2018-08-20T06:32:41.752Z,25.05
2018-08-20T06:33:41.757Z,26.03
2018-08-20T06:34:41.742Z,26.73
2018-08-20T06:35:41.758Z,27.50
2018-08-20T06:36:41.766Z,28.15
2018-08-20T06:37:41.713Z,28.85
2018-08-20T06:38:41.695Z,29.26
2018-08-20T06:39:41.697Z,29.73
2018-08-20T06:40:41.678Z,30.06
2018-08-20T06:41:41.798Z,29.73
2018-08-20T06:42:41.680Z,28.98
2018-08-20T06:43:49.182Z,28.45
2018-08-20T06:44:41.638Z,28.35
2018-08-20T06:45:41.623Z,27.95
2018-08-20T06:46:41.622Z,27.58
2018-08-20T06:47:41.620Z,27.31
2018-08-20T06:48:41.606Z,27.23
2018-08-20T06:49:41.575Z,27.05
2018-08-20T06:50:41.569Z,26.79
2018-08-20T06:51:41.556Z,26.69
2018-08-20T06:52:41.585Z,26.57
2018-08-20T06:53:41.542Z,26.35
2018-08-20T06:54:41.531Z,26.27
2018-08-20T06:55:41.513Z,26.31
2018-08-20T06:56:41.504Z,26.19
2018-08-20T06:57:41.518Z,26.17
2018-08-20T06:58:41.480Z,26.04
2018-08-20T06:59:41.470Z,25.85
2018-08-20T07:00:41.470Z,25.71
2018-08-20T07:01:41.470Z,25.61
2018-08-20T07:02:41.582Z,25.56
2018-08-20T07:03:41.432Z,25.61
2018-08-20T07:04:41.437Z,25.61
2018-08-20T07:05:41.416Z,25.53
2018-08-20T07:06:41.468Z,25.56
2018-08-20T07:07:41.428Z,25.44
2018-08-20T07:08:41.390Z,25.44
2018-08-20T07:09:41.368Z,25.36
2018-08-20T07:10:41.373Z,25.29
2018-08-20T07:11:41.377Z,25.24
2018-08-20T07:12:41.438Z,25.22
2018-08-20T07:13:41.404Z,25.12
2018-08-20T07:14:41.313Z,25.14
2018-08-20T07:15:41.314Z,25.08
2018-08-20T07:16:41.314Z,24.90
2018-08-20T07:17:41.309Z,24.68
2018-08-20T07:18:41.274Z,24.61
2018-08-20T07:19:41.271Z,24.59
2018-08-20T07:20:41.278Z,24.55
2018-08-20T07:21:41.248Z,24.64
2018-08-20T07:22:41.290Z,24.68
2018-08-20T07:23:41.268Z,24.60
2018-08-20T07:24:41.284Z,24.49
2018-08-20T07:25:41.217Z,24.49
2018-08-20T07:26:41.193Z,24.49
2018-08-20T07:27:41.216Z,24.53
2018-08-20T07:28:41.173Z,24.49
2018-08-20T07:29:41.161Z,24.55
2018-08-20T07:30:41.147Z,24.53
2018-08-20T07:31:41.160Z,24.52
2018-08-20T07:32:41.160Z,24.49
2018-08-20T07:33:41.117Z,24.48
2018-08-20T07:34:41.104Z,24.53
2018-08-20T07:35:41.094Z,24.39
2018-08-20T07:36:41.086Z,24.39
2018-08-20T07:37:41.056Z,24.24
2018-08-20T07:38:41.095Z,24.19
2018-08-20T07:39:41.052Z,24.23
2018-08-20T07:40:41.063Z,24.26
2018-08-20T07:41:41.032Z,24.26
2018-08-20T07:42:41.050Z,24.39
2018-08-20T07:43:41.020Z,24.24
2018-08-20T07:44:41.003Z,24.36
2018-08-20T07:45:40.993Z,24.39
2018-08-20T07:46:40.927Z,24.36
2018-08-20T07:47:40.988Z,24.41
2018-08-20T07:48:40.955Z,24.41
2018-08-20T07:49:40.954Z,24.39
2018-08-20T07:50:40.934Z,24.44
2018-08-20T07:51:40.919Z,24.51
2018-08-20T07:52:40.941Z,24.49
2018-08-20T07:53:40.896Z,24.53
2018-08-20T07:54:40.900Z,24.67
2018-08-20T07:55:40.878Z,24.80
2018-08-20T07:56:40.879Z,24.90
2018-08-20T07:57:40.839Z,24.98
2018-08-20T07:58:40.851Z,25.07
2018-08-20T07:59:40.954Z,25.07
2018-08-20T08:00:40.836Z,25.11
2018-08-20T08:01:40.815Z,25.19
2018-08-20T08:02:40.825Z,25.19
2018-08-20T08:03:40.904Z,25.22
2018-08-20T08:04:40.784Z,25.12
2018-08-20T08:05:40.786Z,25.19
2018-08-20T08:06:40.789Z,25.17
2018-08-20T08:07:40.777Z,25.14
2018-08-20T08:08:40.784Z,25.19
2018-08-20T08:09:40.780Z,25.19
2018-08-20T08:10:40.723Z,25.16
2018-08-20T08:11:40.708Z,25.07
2018-08-20T08:12:40.746Z,25.11
2018-08-20T08:13:40.697Z,25.04
2018-08-20T08:14:40.682Z,25.07
2018-08-20T08:15:40.672Z,25.02
2018-08-20T08:16:40.661Z,25.01
2018-08-20T08:17:40.674Z,24.98
2018-08-20T08:18:40.636Z,24.94
2018-08-20T08:19:40.629Z,24.84
2018-08-20T08:20:40.622Z,24.89
2018-08-20T08:21:40.606Z,24.83
2018-08-20T08:22:40.642Z,24.74
2018-08-20T08:23:40.585Z,24.79
2018-08-20T08:24:40.575Z,24.70
2018-08-20T08:25:40.564Z,24.66
2018-08-20T08:26:40.552Z,24.59
2018-08-20T08:27:40.539Z,24.68
2018-08-20T08:28:40.559Z,24.60
2018-08-20T08:29:40.521Z,24.51
2018-08-20T08:30:40.506Z,24.64
2018-08-20T08:31:40.495Z,24.55
2018-08-20T08:32:40.488Z,24.59
2018-08-20T08:33:40.498Z,24.64
2018-08-20T08:34:40.471Z,24.71
2018-08-20T08:35:40.465Z,24.79
2018-08-20T08:36:40.446Z,24.83
2018-08-20T08:37:40.434Z,24.92
2018-08-20T08:38:40.442Z,24.93
2018-08-20T08:39:40.411Z,25.04
2018-08-20T08:40:40.406Z,25.07
2018-08-20T08:41:40.398Z,25.09
2018-08-20T08:42:40.380Z,25.07
2018-08-20T08:43:40.401Z,25.08
2018-08-20T08:44:40.370Z,25.19
2018-08-20T08:45:40.346Z,25.34
2018-08-20T08:46:40.349Z,25.34
2018-08-20T08:47:40.331Z,25.44
2018-08-20T08:48:40.351Z,25.49
2018-08-20T08:49:40.357Z,25.53
2018-08-20T08:50:40.294Z,25.60
2018-08-20T08:51:40.283Z,25.61
2018-08-20T08:52:40.278Z,25.63
2018-08-20T08:53:40.291Z,25.63
2018-08-20T08:54:40.256Z,25.56
2018-08-20T08:55:40.244Z,25.45
2018-08-20T08:56:40.193Z,25.46
2018-08-20T08:57:40.216Z,25.44
2018-08-20T08:58:40.331Z,25.44
2018-08-20T08:59:40.209Z,25.49
2018-08-20T09:00:40.273Z,25.36
2018-08-20T09:01:40.136Z,25.45
2018-08-20T09:02:40.194Z,25.48
2018-08-20T09:03:40.182Z,25.49
2018-08-20T09:04:40.151Z,25.64
2018-08-20T09:05:40.140Z,25.72
2018-08-20T09:06:40.128Z,25.72
2018-08-20T09:07:40.131Z,25.74
2018-08-20T09:08:40.187Z,25.85
2018-08-20T09:09:40.107Z,25.81
2018-08-20T09:10:40.085Z,25.89
2018-08-20T09:11:40.075Z,26.09
2018-08-20T09:12:40.068Z,26.04
2018-08-20T09:13:40.095Z,26.13
2018-08-20T09:14:40.072Z,26.20
2018-08-20T09:15:40.054Z,26.21
2018-08-20T09:16:40.035Z,26.28
2018-08-20T09:17:40.012Z,26.31
2018-08-20T09:18:40.054Z,26.19
2018-08-20T09:19:39.995Z,26.13
2018-08-20T09:20:40.047Z,26.21
2018-08-20T09:21:39.971Z,26.24
2018-08-20T09:22:39.959Z,26.27
2018-08-20T09:23:39.980Z,26.20
2018-08-20T09:24:39.939Z,26.08
2018-08-20T09:25:39.938Z,26.03
2018-08-20T09:26:39.916Z,25.96
2018-08-20T09:27:39.907Z,26.01
2018-08-20T09:28:39.900Z,25.98
2018-08-20T09:29:39.925Z,26.19
2018-08-20T09:30:39.895Z,26.29
2018-08-20T09:31:39.877Z,26.34
2018-08-20T09:32:39.875Z,26.47
2018-08-20T09:33:39.845Z,26.56
2018-08-20T09:34:39.860Z,26.69
2018-08-20T09:35:39.828Z,26.69
2018-08-20T09:36:39.819Z,26.66
2018-08-20T09:37:39.823Z,26.57
2018-08-20T09:38:39.756Z,26.53
2018-08-20T09:39:39.829Z,26.65
2018-08-20T09:40:39.775Z,26.66
2018-08-20T09:41:39.761Z,26.75
2018-08-20T09:42:39.755Z,26.87
2018-08-20T09:43:39.766Z,26.97
2018-08-20T09:44:39.756Z,26.91
2018-08-20T09:45:39.726Z,26.90
2018-08-20T09:46:39.749Z,26.91
2018-08-20T09:47:39.704Z,26.87
2018-08-20T09:48:39.700Z,26.97
2018-08-20T09:49:39.841Z,27.08
2018-08-20T09:50:39.680Z,27.11
2018-08-20T09:51:39.633Z,27.15
2018-08-20T09:52:39.664Z,27.25
2018-08-20T09:53:39.650Z,27.35
2018-08-20T09:54:39.652Z,27.62
2018-08-20T09:55:39.577Z,27.21
2018-08-20T09:56:39.605Z,27.11
2018-08-20T09:57:39.633Z,27.24
2018-08-20T09:58:39.583Z,27.25
2018-08-20T09:59:39.592Z,27.27
2018-08-20T10:00:39.649Z,27.42
2018-08-20T10:01:39.655Z,27.52
2018-08-20T10:02:39.541Z,27.55
2018-08-20T10:03:39.579Z,27.71
2018-08-20T10:04:39.586Z,27.76
2018-08-20T10:05:39.614Z,27.74
2018-08-20T10:06:39.502Z,27.39
2018-08-20T10:07:39.492Z,27.27
2018-08-20T10:08:39.494Z,27.28
2018-08-20T10:09:39.656Z,27.30
2018-08-20T10:10:39.475Z,27.34
2018-08-20T10:11:39.468Z,27.25
2018-08-20T10:12:39.438Z,27.33
2018-08-20T10:13:39.424Z,27.28
2018-08-20T10:14:39.475Z,27.13
2018-08-20T10:15:39.404Z,26.97
2018-08-20T10:16:39.377Z,26.57
2018-08-20T10:17:39.387Z,26.46
2018-08-20T10:18:39.382Z,26.29
2018-08-20T10:19:39.391Z,26.24
2018-08-20T10:20:39.372Z,26.08
2018-08-20T10:21:39.347Z,26.03
2018-08-20T10:22:39.349Z,25.98
2018-08-20T10:23:39.327Z,25.89
2018-08-20T10:24:39.402Z,25.83
2018-08-20T10:25:39.311Z,25.75
2018-08-20T10:26:39.353Z,25.76
2018-08-20T10:27:39.286Z,25.64
2018-08-20T10:28:39.274Z,25.51
2018-08-20T10:29:39.287Z,25.44
2018-08-20T10:30:39.206Z,25.38
2018-08-20T10:31:39.246Z,25.41
2018-08-20T10:32:39.189Z,25.41
2018-08-20T10:33:39.221Z,25.39
2018-08-20T10:34:39.230Z,25.42
2018-08-20T10:35:39.199Z,25.38
2018-08-20T10:36:39.184Z,25.27
2018-08-20T10:37:39.257Z,25.07
2018-08-20T10:38:39.173Z,25.14
2018-08-20T10:39:39.183Z,25.02
2018-08-20T10:40:39.146Z,24.97
2018-08-20T10:41:39.169Z,24.87
2018-08-20T10:42:39.127Z,24.74
2018-08-20T10:43:39.154Z,24.67
2018-08-20T10:44:39.106Z,24.64
2018-08-20T10:45:39.109Z,24.55
2018-08-20T10:46:39.082Z,24.37
2018-08-20T10:47:39.077Z,24.24
2018-08-20T10:48:39.080Z,24.08
2018-08-20T10:49:39.057Z,24.04
2018-08-20T10:50:39.075Z,24.06
2018-08-20T10:51:39.039Z,24.15
2018-08-20T10:52:39.024Z,24.09
2018-08-20T10:53:39.006Z,24.16
2018-08-20T10:54:38.980Z,24.18
2018-08-20T10:55:39.007Z,24.12
2018-08-20T10:56:38.969Z,24.29
2018-08-20T10:57:38.974Z,24.34
2018-08-20T10:58:39.009Z,24.44
2018-08-20T10:59:38.939Z,24.48
2018-08-20T11:00:38.947Z,24.63
2018-08-20T11:01:38.918Z,24.74
2018-08-20T11:02:38.917Z,24.83
2018-08-20T11:03:38.896Z,24.75
2018-08-20T11:04:38.917Z,24.79
2018-08-20T11:05:38.857Z,24.99
2018-08-20T11:06:38.875Z,24.94
2018-08-20T11:07:38.865Z,25.01
2018-08-20T11:08:38.848Z,25.07
2018-08-20T11:09:38.796Z,25.17
2018-08-20T11:10:38.879Z,25.12
2018-08-20T11:11:38.817Z,25.09
2018-08-20T11:12:38.800Z,25.11
2018-08-20T11:13:38.792Z,25.14
2018-08-20T11:14:38.784Z,25.19
2018-08-20T11:15:38.809Z,25.35
2018-08-20T11:16:38.760Z,25.27
2018-08-20T11:17:38.754Z,25.44
2018-08-20T11:18:38.795Z,25.34
2018-08-20T11:19:38.747Z,25.22
2018-08-20T11:20:38.745Z,25.22
2018-08-20T11:21:38.707Z,25.39
2018-08-20T11:22:38.697Z,25.53
2018-08-20T11:23:38.684Z,25.53
2018-08-20T11:24:38.685Z,25.60
2018-08-20T11:25:38.685Z,25.67
2018-08-20T11:26:38.668Z,25.83
2018-08-20T11:27:38.724Z,26.04
2018-08-20T11:28:38.599Z,26.11
2018-08-20T11:29:38.625Z,26.19
2018-08-20T11:30:38.630Z,26.42
2018-08-20T11:31:38.602Z,26.44
2018-08-20T11:32:38.590Z,26.41
2018-08-20T11:33:38.579Z,26.47
2018-08-20T11:34:38.568Z,26.61
2018-08-20T11:35:38.597Z,26.75
2018-08-20T11:36:38.577Z,26.71
2018-08-20T11:37:38.548Z,26.79
2018-08-20T11:38:38.528Z,26.81
2018-08-20T11:39:38.515Z,26.76
2018-08-20T11:40:38.535Z,26.90
2018-08-20T11:41:38.510Z,26.88
2018-08-20T11:42:38.487Z,26.61
2018-08-20T11:43:38.485Z,26.64
2018-08-20T11:44:38.464Z,26.57
2018-08-20T11:45:38.490Z,26.72
2018-08-20T11:46:38.453Z,26.76
2018-08-20T11:47:38.472Z,26.91
2018-08-20T11:48:38.384Z,27.05
2018-08-20T11:49:38.411Z,26.84
2018-08-20T11:50:38.434Z,26.69
2018-08-20T11:51:38.348Z,26.69
2018-08-20T11:52:38.379Z,26.81
2018-08-20T11:53:38.378Z,26.57
2018-08-20T11:54:38.367Z,26.57
2018-08-20T11:55:38.355Z,26.38
2018-08-20T11:56:38.361Z,26.46
2018-08-20T11:57:38.400Z,26.34
2018-08-20T11:58:38.321Z,26.27
2018-08-20T11:59:38.314Z,26.28
2018-08-20T12:00:38.298Z,26.09
2018-08-20T12:01:38.366Z,25.96
2018-08-20T12:02:38.275Z,26.00
2018-08-20T12:03:38.267Z,25.91
2018-08-20T12:04:38.259Z,25.90
2018-08-20T12:05:38.262Z,25.72
2018-08-20T12:06:38.287Z,25.45
2018-08-20T12:07:38.188Z,25.36
2018-08-20T12:08:38.234Z,25.29
2018-08-20T12:09:38.198Z,25.11
2018-08-20T12:10:38.190Z,25.05
2018-08-20T12:11:38.207Z,25.05
2018-08-20T12:12:38.170Z,25.08
2018-08-20T12:13:38.161Z,24.99
2018-08-20T12:14:38.151Z,24.98
2018-08-20T12:15:38.138Z,25.05
2018-08-20T12:16:38.152Z,25.09
2018-08-20T12:17:38.120Z,25.08
2018-08-20T12:18:38.105Z,25.09
2018-08-20T12:19:38.106Z,25.23
2018-08-20T12:20:38.085Z,25.09
2018-08-20T12:21:38.103Z,25.12
2018-08-20T12:22:38.071Z,25.08
2018-08-20T12:23:38.059Z,25.12
2018-08-20T12:24:38.042Z,25.09
2018-08-20T12:25:38.032Z,25.19
2018-08-20T12:26:38.049Z,25.08
2018-08-20T12:27:37.974Z,25.09
2018-08-20T12:28:38.022Z,25.09
2018-08-20T12:29:37.959Z,25.12
2018-08-20T12:30:37.937Z,25.07
2018-08-20T12:31:38.001Z,25.08
2018-08-20T12:32:37.954Z,25.08
2018-08-20T12:33:37.954Z,25.11
2018-08-20T12:34:37.946Z,25.08
2018-08-20T12:35:37.929Z,25.07
2018-08-20T12:36:37.986Z,25.09
2018-08-20T12:37:37.905Z,25.09
2018-08-20T12:38:37.905Z,25.14
2018-08-20T12:39:37.883Z,25.20
2018-08-20T12:40:37.872Z,25.23
2018-08-20T12:41:37.864Z,25.27
2018-08-20T12:42:37.898Z,25.29
2018-08-20T12:43:37.844Z,25.30
2018-08-20T12:44:37.838Z,25.34
2018-08-20T12:45:37.817Z,25.44
2018-08-20T12:46:37.812Z,25.41
2018-08-20T12:47:37.827Z,25.42
2018-08-20T12:48:37.812Z,25.51
2018-08-20T12:49:37.783Z,25.49
2018-08-20T12:50:37.870Z,25.51
2018-08-20T12:51:37.757Z,25.53
2018-08-20T12:52:37.782Z,25.56